Time;durP1;ratioP1;P1;durP2;ratioP2;P2;SDS_P1;SDS_P2;PMS_P1;PMS_P2;Temp;Humidity;BMP_temperature;BMP_pressure;BME280_temperature;BME280_humidity;BME280_pressure;Samples;Min_cycle;Max_cycle;Signal;HPM_P1;HPM_P2
2023/11/29 00:00:43;;;;;;;13.67;12.20;;;0.30;1.00;;;;;;5098058;28;20190;-40
2023/11/29 00:03:09;;;;;;;14.13;12.60;;;0.20;1.00;;;;;;5098851;28;20466;-41
2023/11/29 00:05:36;;;;;;;11.93;10.47;;;0.10;1.00;;;;;;5098266;28;20168;-41
2023/11/29 00:08:04;;;;;;;14.40;12.43;;;0.20;17.30;;;;;;5098631;28;20455;-40
2023/11/29 00:10:33;;;;;;;14.33;12.70;;;0.10;99.90;;;;;;5098656;28;20873;-40
2023/11/29 00:12:59;;;;;;;15.03;13.00;;;0.10;99.90;;;;;;5099059;28;20499;-43
2023/11/29 00:15:27;;;;;;;16.50;13.77;;;0.10;99.90;;;;;;5098689;28;20824;-42
2023/11/29 00:17:53;;;;;;;13.07;11.77;;;0.10;99.90;;;;;;5097526;28;20643;-43
2023/11/29 00:20:19;;;;;;;14.70;13.20;;;0.20;99.90;;;;;;5098121;28;20414;-41
2023/11/29 00:22:44;;;;;;;12.73;11.43;;;0.20;99.90;;;;;;5098491;28;20185;-42
2023/11/29 00:25:10;;;;;;;14.67;12.63;;;0.20;99.90;;;;;;5098739;28;20191;-42
2023/11/29 00:27:36;;;;;;;15.30;13.20;;;0.20;99.90;;;;;;5097275;28;20466;-41
2023/11/29 00:30:02;;;;;;;13.40;12.00;;;0.20;99.90;;;;;;5100014;28;20180;-42
2023/11/29 00:32:28;;;;;;;14.00;11.97;;;0.20;99.90;;;;;;5116718;28;20239;-42
2023/11/29 00:34:54;;;;;;;14.90;11.80;;;0.20;99.90;;;;;;5100142;28;20465;-44
2023/11/29 00:37:20;;;;;;;17.27;12.90;;;0.10;99.90;;;;;;5118478;28;20633;-42
2023/11/29 00:39:45;;;;;;;14.20;12.03;;;0.00;99.90;;;;;;5100707;28;20448;-42
2023/11/29 00:42:11;;;;;;;13.67;11.87;;;-0.10;99.90;;;;;;5118465;28;20172;-42
2023/11/29 00:44:39;;;;;;;14.40;12.50;;;-0.10;99.90;;;;;;5118404;28;20522;-41
2023/11/29 00:47:05;;;;;;;16.43;13.87;;;0.00;99.90;;;;;;5118571;28;20214;-41
2023/11/29 00:49:31;;;;;;;15.77;12.53;;;0.00;99.90;;;;;;5118330;28;20429;-40
2023/11/29 00:51:56;;;;;;;14.60;11.43;;;0.00;99.90;;;;;;5115288;28;20190;-40
2023/11/29 00:54:22;;;;;;;13.90;12.07;;;0.00;99.90;;;;;;5117665;28;20515;-41
2023/11/29 00:56:47;;;;;;;15.77;12.70;;;-0.10;99.90;;;;;;5117483;28;20213;-41
2023/11/29 00:59:13;;;;;;;15.00;12.43;;;-0.10;99.90;;;;;;5117841;28;20172;-42
2023/11/29 01:01:39;;;;;;;15.10;12.23;;;-0.10;99.90;;;;;;5117672;28;20183;-41
2023/11/29 01:04:04;;;;;;;15.23;11.90;;;-0.10;99.90;;;;;;5118311;28;20211;-41
2023/11/29 01:06:33;;;;;;;14.33;12.80;;;-0.20;99.90;;;;;;5117726;28;20287;-41
2023/11/29 01:08:59;;;;;;;14.07;10.40;;;-0.20;99.90;;;;;;5100528;28;20180;-41
2023/11/29 01:11:24;;;;;;;13.67;12.17;;;-0.30;99.90;;;;;;5116890;28;20436;-43
2023/11/29 01:13:50;;;;;;;14.50;11.47;;;-0.40;99.90;;;;;;5117647;28;20180;-40
2023/11/29 01:16:16;;;;;;;14.20;11.47;;;-0.30;99.90;;;;;;5099256;28;20205;-42
2023/11/29 01:18:42;;;;;;;13.63;10.50;;;-0.30;99.90;;;;;;5117463;28;20179;-41
2023/11/29 01:21:16;;;;;;;14.90;11.27;;;-0.30;99.90;;;;;;5117996;28;20255;-42
2023/11/29 01:23:42;;;;;;;13.63;10.40;;;-0.30;99.90;;;;;;5117301;28;20854;-43
2023/11/29 01:26:08;;;;;;;14.10;10.90;;;-0.30;99.90;;;;;;5116961;28;20550;-41
2023/11/29 01:28:34;;;;;;;14.33;11.17;;;-0.30;99.90;;;;;;5117077;28;20406;-41
2023/11/29 01:31:07;;;;;;;13.80;10.90;;;-0.30;99.90;;;;;;5116802;28;20472;-43
2023/11/29 01:33:34;;;;;;;11.67;10.30;;;-0.30;99.90;;;;;;5115873;28;20491;-41
2023/11/29 01:36:09;;;;;;;15.10;11.37;;;-0.40;99.90;;;;;;5115224;28;20418;-42
2023/11/29 01:38:35;;;;;;;13.43;10.90;;;-0.40;99.90;;;;;;5096910;28;20444;-40
2023/11/29 01:41:01;;;;;;;13.03;10.60;;;-0.40;99.90;;;;;;5115711;28;20425;-42
2023/11/29 01:43:26;;;;;;;14.00;10.57;;;-0.40;99.90;;;;;;5115452;28;20444;-40
2023/11/29 01:45:52;;;;;;;14.27;11.53;;;-0.30;99.90;;;;;;5115850;28;20530;-40
2023/11/29 01:48:19;;;;;;;14.40;10.70;;;-0.40;99.90;;;;;;5116629;28;20223;-40
2023/11/29 01:50:45;;;;;;;13.13;10.30;;;-0.40;99.90;;;;;;5097483;28;20164;-42
2023/11/29 01:53:12;;;;;;;16.87;11.70;;;-0.40;99.90;;;;;;5096866;28;20760;-41
2023/11/29 01:55:38;;;;;;;13.70;9.63;;;-0.50;99.90;;;;;;5116398;28;20425;-40
2023/11/29 01:58:04;;;;;;;14.93;11.87;;;-0.50;99.90;;;;;;5116406;28;20422;-50
2023/11/29 02:00:29;;;;;;;12.63;10.20;;;-0.50;99.90;;;;;;5116417;28;20475;-43
2023/11/29 02:02:55;;;;;;;14.80;9.73;;;-0.60;99.90;;;;;;5114603;28;20275;-42
2023/11/29 02:05:21;;;;;;;12.67;9.40;;;-0.50;99.90;;;;;;5113383;28;20180;-40
2023/11/29 02:07:47;;;;;;;14.17;11.07;;;-0.60;99.90;;;;;;5115884;28;20211;-44
2023/11/29 02:10:13;;;;;;;10.93;8.90;;;-0.60;99.90;;;;;;5115917;28;20417;-42
2023/11/29 02:12:38;;;;;;;13.30;10.57;;;-0.60;99.90;;;;;;5115533;28;20412;-44
2023/11/29 02:15:04;;;;;;;12.40;9.23;;;-0.60;99.90;;;;;;5116543;28;20186;-43
2023/11/29 02:17:30;;;;;;;11.37;8.83;;;-0.60;99.90;;;;;;5096798;28;20179;-42
2023/11/29 02:19:56;;;;;;;10.90;8.70;;;-0.70;99.90;;;;;;5115027;28;20459;-44
2023/11/29 02:22:22;;;;;;;14.00;9.20;;;-0.80;99.90;;;;;;5097957;28;20183;-40
2023/11/29 02:24:47;;;;;;;11.93;9.17;;;-0.80;99.90;;;;;;5115339;28;20187;-40
2023/11/29 02:27:13;;;;;;;10.10;8.20;;;-0.70;99.90;;;;;;5115190;28;20540;-41
2023/11/29 02:29:39;;;;;;;9.43;7.70;;;-0.70;99.90;;;;;;5115343;28;20188;-42
2023/11/29 02:32:06;;;;;;;10.87;8.23;;;-0.80;37.00;;;;;;5115252;28;20227;-42
2023/11/29 02:34:31;;;;;;;12.37;9.00;;;-0.80;99.60;;;;;;5097393;28;20245;-40
2023/11/29 02:36:57;;;;;;;9.70;8.33;;;-1.00;99.90;;;;;;5115948;28;20418;-40
2023/11/29 02:39:22;;;;;;;10.00;7.80;;;-1.00;99.90;;;;;;5116014;28;20179;-42
2023/11/29 02:41:48;;;;;;;11.30;8.10;;;-1.00;99.90;;;;;;5116445;28;20584;-42
2023/11/29 02:44:13;;;;;;;12.57;8.60;;;-1.00;99.90;;;;;;5115934;28;20184;-40
2023/11/29 02:46:39;;;;;;;11.10;8.30;;;-1.00;99.90;;;;;;5081199;28;20219;-42
2023/11/29 02:49:05;;;;;;;11.07;7.80;;;-1.00;99.90;;;;;;5116137;28;20168;-40
2023/11/29 02:51:31;;;;;;;11.93;8.73;;;-1.00;99.90;;;;;;5116394;28;20670;-40
2023/11/29 02:53:56;;;;;;;11.63;8.83;;;-0.90;99.90;;;;;;5116322;28;20180;-40
2023/11/29 02:56:22;;;;;;;11.13;8.43;;;-0.90;21.40;;;;;;5116347;28;20179;-43
2023/11/29 02:58:47;;;;;;;12.57;9.43;;;-0.90;1.00;;;;;;5116251;28;20180;-40
2023/11/29 03:01:13;;;;;;;9.30;8.27;;;-1.00;1.00;;;;;;5114943;28;20183;-41
2023/11/29 03:03:39;;;;;;;9.67;8.30;;;-0.90;1.00;;;;;;5115031;28;20585;-41
2023/11/29 03:06:05;;;;;;;11.30;8.87;;;-0.90;43.00;;;;;;5115131;28;20222;-41
2023/11/29 03:08:31;;;;;;;12.37;9.27;;;-0.90;99.90;;;;;;5096700;28;20710;-43
2023/11/29 03:10:57;;;;;;;10.40;7.93;;;-1.00;95.20;;;;;;5114553;28;20550;-41
2023/11/29 03:13:27;;;;;;;10.30;8.10;;;-1.00;79.20;;;;;;5114575;28;20561;-41
2023/11/29 03:15:52;;;;;;;11.60;9.23;;;-1.10;99.90;;;;;;5115368;28;20168;-43
2023/11/29 03:18:18;;;;;;;11.80;8.70;;;-1.10;99.90;;;;;;5118744;28;20514;-44
2023/11/29 03:20:43;;;;;;;9.90;7.77;;;-1.10;99.90;;;;;;5118756;28;20210;-41
2023/11/29 03:23:09;;;;;;;9.00;7.83;;;-1.10;99.90;;;;;;5119091;28;20291;-40
2023/11/29 03:25:35;;;;;;;11.47;9.30;;;-1.10;99.90;;;;;;5118243;28;20190;-40
2023/11/29 03:28:00;;;;;;;13.13;8.60;;;-1.10;99.90;;;;;;5117424;28;20593;-40
2023/11/29 03:30:26;;;;;;;10.87;8.70;;;-1.10;99.90;;;;;;5118332;28;20314;-41
2023/11/29 03:32:51;;;;;;;10.93;8.47;;;-1.10;99.90;;;;;;5118823;28;20267;-43
2023/11/29 03:35:17;;;;;;;12.13;8.97;;;-1.10;99.90;;;;;;5119088;28;20410;-41
2023/11/29 03:37:43;;;;;;;10.40;8.83;;;-1.20;99.90;;;;;;5118988;28;20176;-40
2023/11/29 03:40:09;;;;;;;11.80;8.53;;;-1.20;99.90;;;;;;5117618;28;20517;-43
2023/11/29 03:42:34;;;;;;;12.60;8.80;;;-1.20;99.90;;;;;;5116382;28;20425;-41
2023/11/29 03:45:02;;;;;;;10.90;8.83;;;-1.20;99.90;;;;;;5116474;28;20202;-40
2023/11/29 03:47:28;;;;;;;10.60;7.60;;;-1.20;99.90;;;;;;5117315;28;20200;-40
2023/11/29 03:49:53;;;;;;;12.87;8.53;;;-1.20;1.00;;;;;;5116951;28;20650;-41
2023/11/29 03:52:19;;;;;;;11.30;9.00;;;-1.30;1.00;;;;;;5116422;28;20184;-41
2023/11/29 03:54:45;;;;;;;11.30;8.40;;;-1.30;1.00;;;;;;5098732;28;20222;-42
2023/11/29 03:57:11;;;;;;;13.50;9.10;;;-1.30;99.90;;;;;;5116902;28;20176;-41
2023/11/29 03:59:36;;;;;;;9.60;8.60;;;-1.30;99.90;;;;;;5114282;28;20703;-41
2023/11/29 04:02:02;;;;;;;11.97;8.50;;;-1.30;99.90;;;;;;5115737;28;20195;-41
2023/11/29 04:04:28;;;;;;;10.60;8.90;;;-1.40;99.90;;;;;;5116093;28;20519;-42
2023/11/29 04:06:53;;;;;;;12.10;8.40;;;-1.40;99.90;;;;;;5116291;28;20606;-45
2023/11/29 04:09:19;;;;;;;9.50;7.50;;;-1.40;99.90;;;;;;5115463;28;20601;-42
2023/11/29 04:11:46;;;;;;;11.03;8.67;;;-1.40;99.90;;;;;;5116079;28;20176;-41
2023/11/29 04:14:11;;;;;;;12.60;8.40;;;-1.40;99.90;;;;;;5118168;28;20556;-45
2023/11/29 04:16:37;;;;;;;11.97;9.07;;;-1.40;99.90;;;;;;5118093;28;20504;-41
2023/11/29 04:19:03;;;;;;;10.70;8.50;;;-1.40;99.90;;;;;;5118235;28;20478;-40
2023/11/29 04:21:35;;;;;;;12.40;8.83;;;-1.50;99.90;;;;;;5117886;28;20193;-41
2023/11/29 04:24:01;;;;;;;12.00;8.57;;;-1.50;99.90;;;;;;5117814;28;20176;-42
2023/11/29 04:26:29;;;;;;;8.23;6.93;;;-1.50;1.00;;;;;;5099738;28;20465;-43
2023/11/29 04:28:54;;;;;;;12.40;9.13;;;-1.50;1.00;;;;;;5117918;28;20520;-43
2023/11/29 04:31:20;;;;;;;9.27;7.40;;;-1.50;1.00;;;;;;5117821;28;20552;-42
2023/11/29 04:33:46;;;;;;;11.57;8.50;;;-1.50;1.00;;;;;;5117586;28;20417;-43
2023/11/29 04:36:11;;;;;;;12.90;9.60;;;-1.50;1.00;;;;;;5117959;28;20201;-41
2023/11/29 04:38:38;;;;;;;13.60;9.47;;;-1.50;1.00;;;;;;5099401;28;20206;-40
2023/11/29 04:41:04;;;;;;;12.53;8.97;;;-1.50;1.00;;;;;;5115534;28;20172;-42
2023/11/29 04:43:30;;;;;;;11.70;9.33;;;-1.40;1.00;;;;;;5116011;28;20679;-41
2023/11/29 04:45:55;;;;;;;14.00;9.13;;;-1.40;1.00;;;;;;5115228;28;20421;-43
2023/11/29 04:48:22;;;;;;;14.37;10.53;;;-1.40;1.00;;;;;;5115213;28;20625;-45
2023/11/29 04:50:51;;;;;;;14.30;9.47;;;-1.50;1.00;;;;;;5114899;28;20172;-42
2023/11/29 04:53:17;;;;;;;13.70;10.17;;;-1.50;1.00;;;;;;5094914;28;20492;-40
2023/11/29 04:55:42;;;;;;;13.10;9.73;;;-1.40;1.00;;;;;;5094525;28;20508;-40
2023/11/29 04:58:08;;;;;;;13.90;10.87;;;-1.30;1.00;;;;;;5113275;28;20488;-41
2023/11/29 05:00:33;;;;;;;17.50;9.97;;;-1.30;1.00;;;;;;5112326;28;20627;-43
2023/11/29 05:02:59;;;;;;;13.00;9.00;;;-1.20;1.00;;;;;;5095445;28;20385;-41
2023/11/29 05:05:25;;;;;;;14.40;10.67;;;-1.30;1.00;;;;;;5114175;28;20172;-42
2023/11/29 05:07:53;;;;;;;14.03;9.73;;;-1.30;1.00;;;;;;5115490;28;20238;-42
2023/11/29 05:10:19;;;;;;;14.17;9.57;;;-1.30;1.00;;;;;;5114530;28;20193;-41
2023/11/29 05:12:44;;;;;;;12.53;9.23;;;-1.30;1.00;;;;;;5115528;28;20409;-40
2023/11/29 05:15:10;;;;;;;11.87;9.23;;;-1.20;1.00;;;;;;5114124;28;20544;-40
2023/11/29 05:17:36;;;;;;;15.17;10.43;;;-1.20;1.00;;;;;;5114596;28;20221;-41
2023/11/29 05:20:02;;;;;;;14.20;9.40;;;-1.20;1.00;;;;;;5115372;28;20611;-41
2023/11/29 05:22:28;;;;;;;13.83;10.17;;;-1.20;1.00;;;;;;5114491;28;20270;-40
2023/11/29 05:24:54;;;;;;;16.43;10.37;;;-1.20;1.00;;;;;;5112170;28;20622;-42
2023/11/29 05:27:19;;;;;;;13.80;10.00;;;-1.20;1.00;;;;;;5112192;28;20208;-43
2023/11/29 05:29:45;;;;;;;12.73;8.73;;;-1.10;1.00;;;;;;5111348;28;20171;-42
2023/11/29 05:32:11;;;;;;;13.00;9.20;;;-1.00;1.00;;;;;;5110367;28;20231;-39
2023/11/29 05:34:36;;;;;;;12.67;9.50;;;-1.00;1.00;;;;;;5111571;28;20247;-42
2023/11/29 05:37:02;;;;;;;12.13;9.60;;;-1.00;1.00;;;;;;5113771;28;20453;-41
2023/11/29 05:39:27;;;;;;;12.73;9.33;;;-1.00;1.00;;;;;;5113928;28;20211;-41
2023/11/29 05:41:54;;;;;;;13.57;9.33;;;-1.00;1.00;;;;;;5113522;28;20191;-42
2023/11/29 05:44:19;;;;;;;12.30;8.90;;;-1.00;1.00;;;;;;5113658;28;20183;-40
2023/11/29 05:46:45;;;;;;;14.47;11.07;;;-1.00;1.00;;;;;;5115919;28;20941;-41
2023/11/29 05:49:11;;;;;;;12.20;9.00;;;-0.90;1.00;;;;;;5112724;28;20172;-39
2023/11/29 05:51:37;;;;;;;13.70;9.13;;;-0.90;1.00;;;;;;5113641;28;20187;-40
2023/11/29 05:54:02;;;;;;;12.10;9.27;;;-0.80;1.00;;;;;;5114856;28;20271;-41
2023/11/29 05:56:29;;;;;;;13.20;9.83;;;-0.80;1.00;;;;;;5113420;28;20700;-39
2023/11/29 05:58:55;;;;;;;11.90;9.23;;;-0.80;1.00;;;;;;5110989;28;20483;-40
2023/11/29 06:01:21;;;;;;;13.63;9.77;;;-0.80;1.00;;;;;;5109907;28;20523;-40
2023/11/29 06:03:47;;;;;;;13.50;9.83;;;-0.80;1.00;;;;;;5090679;28;20187;-41
2023/11/29 06:06:13;;;;;;;13.47;9.90;;;-0.70;1.00;;;;;;5090648;28;20441;-40
2023/11/29 06:08:42;;;;;;;13.10;9.33;;;-0.70;1.00;;;;;;5109812;28;20176;-40
2023/11/29 06:11:09;;;;;;;12.40;9.17;;;-0.60;1.00;;;;;;5108903;28;20651;-40
2023/11/29 06:13:34;;;;;;;12.33;9.00;;;-0.60;1.00;;;;;;5109710;28;20695;-42
2023/11/29 06:16:00;;;;;;;12.80;10.27;;;-0.50;1.00;;;;;;5108770;28;20424;-40
2023/11/29 06:18:26;;;;;;;12.07;9.50;;;-0.50;1.00;;;;;;5109416;28;20621;-42
2023/11/29 06:20:51;;;;;;;14.37;10.13;;;-0.50;1.00;;;;;;5106805;28;20522;-40
2023/11/29 06:23:18;;;;;;;14.40;10.60;;;-0.40;99.90;;;;;;5107287;28;20622;-40
2023/11/29 06:25:44;;;;;;;13.70;10.00;;;-0.50;99.90;;;;;;5105629;28;20268;-40
2023/11/29 06:28:09;;;;;;;14.70;10.90;;;-0.60;1.00;;;;;;5089264;28;20469;-40
2023/11/29 06:30:35;;;;;;;14.20;9.90;;;-0.60;1.00;;;;;;5106741;28;20695;-40
2023/11/29 06:33:01;;;;;;;14.60;10.53;;;-0.70;1.00;;;;;;5103453;28;20168;-41
2023/11/29 06:35:26;;;;;;;13.63;9.80;;;-0.70;1.00;;;;;;5087735;28;20258;-42
2023/11/29 06:37:52;;;;;;;14.97;10.00;;;-0.60;1.00;;;;;;5087677;28;20272;-40
2023/11/29 06:40:17;;;;;;;14.37;10.30;;;-0.60;1.00;;;;;;5087216;28;20169;-41
2023/11/29 06:42:43;;;;;;;13.70;9.60;;;-0.70;1.00;;;;;;5084584;28;20370;-40
2023/11/29 06:45:10;;;;;;;14.73;11.20;;;-0.60;1.00;;;;;;5068016;28;20731;-42
2023/11/29 06:47:36;;;;;;;11.30;9.60;;;-0.60;1.00;;;;;;5071470;28;20466;-40
2023/11/29 06:50:05;;;;;;;12.47;9.87;;;-0.50;1.00;;;;;;5055960;28;20507;-41
2023/11/29 06:52:31;;;;;;;15.93;11.07;;;-0.50;1.00;;;;;;5074712;28;20411;-40
2023/11/29 06:54:57;;;;;;;14.63;10.03;;;-0.50;1.00;;;;;;5091437;28;20873;-40
2023/11/29 06:57:23;;;;;;;11.17;8.87;;;-0.50;1.00;;;;;;5092145;28;20423;-41
2023/11/29 06:59:49;;;;;;;13.00;9.57;;;-0.50;99.90;;;;;;5091696;28;20207;-41
2023/11/29 07:02:15;;;;;;;13.13;9.50;;;-0.40;99.90;;;;;;5091927;28;20537;-41
2023/11/29 07:04:44;;;;;;;14.17;9.83;;;-0.40;99.90;;;;;;5075815;28;20454;-40
2023/11/29 07:07:10;;;;;;;11.33;8.67;;;-0.30;99.90;;;;;;5095560;28;20466;-40
2023/11/29 07:09:36;;;;;;;10.90;8.53;;;-0.30;87.50;;;;;;5093141;28;20458;-41
2023/11/29 07:12:04;;;;;;;12.10;9.10;;;-0.30;38.20;;;;;;5093038;28;20472;-41
2023/11/29 07:14:30;;;;;;;9.97;8.10;;;-0.20;33.70;;;;;;5093082;28;20221;-42
2023/11/29 07:16:56;;;;;;;10.90;8.40;;;-0.20;1.00;;;;;;5094350;28;20819;-41
2023/11/29 07:19:22;;;;;;;11.13;8.10;;;-0.20;1.00;;;;;;5077483;28;20168;-40
2023/11/29 07:21:47;;;;;;;11.27;8.10;;;-0.10;1.00;;;;;;5077242;28;20566;-40
2023/11/29 07:24:13;;;;;;;10.50;9.40;;;-0.10;1.00;;;;;;5095596;28;20469;-43
2023/11/29 07:26:39;;;;;;;10.37;7.93;;;-0.10;1.00;;;;;;5095993;28;20219;-43
2023/11/29 07:29:05;;;;;;;10.20;8.67;;;-0.10;1.00;;;;;;5077690;28;20427;-44
2023/11/29 07:31:33;;;;;;;8.80;7.63;;;0.00;1.00;;;;;;5059415;28;20494;-42
2023/11/29 07:33:58;;;;;;;10.67;8.10;;;0.10;99.90;;;;;;5094438;28;20783;-42
2023/11/29 07:36:24;;;;;;;10.27;8.50;;;0.10;99.90;;;;;;5094366;28;20453;-43
2023/11/29 07:38:50;;;;;;;9.37;7.90;;;0.20;57.40;;;;;;5095341;28;20511;-43
2023/11/29 07:41:17;;;;;;;11.60;7.77;;;0.20;38.60;;;;;;5077264;28;20204;-43
2023/11/29 07:43:44;;;;;;;10.40;8.10;;;0.20;12.60;;;;;;5095435;28;20414;-41
2023/11/29 07:46:12;;;;;;;10.67;8.13;;;0.20;7.00;;;;;;5095489;28;20509;-41
2023/11/29 07:48:38;;;;;;;9.17;7.27;;;0.20;13.00;;;;;;5095571;28;20419;-41
2023/11/29 07:51:03;;;;;;;9.93;7.50;;;0.20;99.90;;;;;;5094055;28;20722;-42
2023/11/29 07:53:29;;;;;;;9.40;7.50;;;0.20;1.00;;;;;;5094324;28;20178;-40
2023/11/29 07:55:55;;;;;;;9.37;7.03;;;0.20;1.00;;;;;;5093852;28;20207;-41
2023/11/29 07:58:21;;;;;;;9.50;7.57;;;0.20;1.00;;;;;;5095632;28;20262;-40
2023/11/29 08:00:46;;;;;;;9.67;7.63;;;0.20;1.00;;;;;;5076418;28;20173;-41
2023/11/29 08:03:14;;;;;;;8.43;6.90;;;0.20;1.00;;;;;;5077760;28;20423;-40
2023/11/29 08:05:41;;;;;;;8.67;6.87;;;0.20;5.10;;;;;;5060968;28;20461;-42
2023/11/29 08:08:08;;;;;;;10.73;7.17;;;0.20;58.70;;;;;;5096268;28;20480;-40
2023/11/29 08:10:33;;;;;;;9.23;7.57;;;0.20;1.00;;;;;;5077692;28;20414;-41
2023/11/29 08:12:59;;;;;;;7.20;6.37;;;0.30;1.00;;;;;;5096113;28;20899;-40
2023/11/29 08:15:26;;;;;;;6.23;5.63;;;0.30;1.00;;;;;;5094170;28;20168;-41
2023/11/29 08:17:52;;;;;;;9.10;7.20;;;0.30;1.00;;;;;;5094750;28;20258;-41
2023/11/29 08:20:20;;;;;;;7.40;6.20;;;0.30;1.00;;;;;;5094312;28;20422;-42
2023/11/29 08:22:46;;;;;;;6.70;6.00;;;0.40;1.00;;;;;;5094006;28;20422;-41
2023/11/29 08:25:12;;;;;;;7.10;5.77;;;0.40;1.00;;;;;;5075793;28;20426;-42
2023/11/29 08:27:38;;;;;;;8.60;7.00;;;0.40;1.00;;;;;;5057897;28;20345;-41
2023/11/29 08:30:06;;;;;;;8.53;6.20;;;0.40;1.00;;;;;;5071993;28;20678;-40
2023/11/29 08:32:32;;;;;;;7.23;6.40;;;0.50;99.90;;;;;;5089685;28;20168;-40
2023/11/29 08:34:57;;;;;;;6.30;5.23;;;0.50;99.90;;;;;;5092482;28;20733;-41
2023/11/29 08:37:24;;;;;;;7.43;6.73;;;0.40;99.90;;;;;;5075574;28;20478;-40
2023/11/29 08:39:49;;;;;;;7.07;6.00;;;0.50;1.00;;;;;;5092298;28;20172;-42
2023/11/29 08:42:15;;;;;;;7.87;6.37;;;0.50;1.00;;;;;;5095345;28;20461;-40
2023/11/29 08:44:42;;;;;;;8.93;6.30;;;0.60;1.00;;;;;;5077194;28;20184;-40
2023/11/29 08:47:07;;;;;;;7.73;6.60;;;0.60;56.90;;;;;;5096803;28;20273;-41
2023/11/29 08:49:33;;;;;;;8.30;7.47;;;0.60;1.00;;;;;;5095131;28;20418;-41
2023/11/29 08:51:59;;;;;;;10.87;7.27;;;0.60;40.60;;;;;;5077112;28;20200;-41
2023/11/29 08:54:25;;;;;;;11.10;7.73;;;0.60;99.90;;;;;;5095763;28;20693;-40
2023/11/29 08:56:50;;;;;;;7.43;6.20;;;0.50;99.90;;;;;;5094963;28;20454;-44
2023/11/29 08:59:17;;;;;;;9.47;7.83;;;0.40;99.90;;;;;;5094974;28;20251;-41
2023/11/29 09:01:43;;;;;;;8.90;7.80;;;0.50;99.90;;;;;;5094167;28;20173;-41
2023/11/29 09:04:08;;;;;;;9.37;7.70;;;0.40;1.00;;;;;;5094775;28;20468;-40
2023/11/29 09:06:34;;;;;;;9.93;7.77;;;0.40;1.00;;;;;;5095022;28;20711;-41
2023/11/29 09:09:00;;;;;;;12.53;7.70;;;0.50;1.00;;;;;;5095944;28;20180;-42
2023/11/29 09:11:26;;;;;;;11.47;7.13;;;0.50;99.90;;;;;;5097056;28;20204;-40
2023/11/29 09:13:52;;;;;;;10.03;6.40;;;0.60;99.90;;;;;;5077984;28;20487;-41
2023/11/29 09:16:18;;;;;;;8.10;6.37;;;0.60;99.90;;;;;;5094644;28;20260;-40
2023/11/29 09:18:44;;;;;;;10.13;7.20;;;0.70;99.90;;;;;;5094780;28;20198;-42
2023/11/29 09:21:10;;;;;;;7.27;6.13;;;0.80;99.90;;;;;;5076695;28;20726;-41
2023/11/29 09:23:36;;;;;;;9.67;7.77;;;0.90;1.00;;;;;;5093998;28;20463;-40
2023/11/29 09:26:02;;;;;;;7.60;5.40;;;1.00;1.00;;;;;;5093825;28;20507;-44
2023/11/29 09:28:28;;;;;;;18.17;12.57;;;1.80;1.00;;;;;;5093163;28;20534;-41
2023/11/29 09:30:54;;;;;;;12.57;9.17;;;2.40;1.00;;;;;;5094618;28;20239;-42
2023/11/29 09:33:21;;;;;;;8.43;7.00;;;2.70;1.00;;;;;;5096497;28;20176;-40
2023/11/29 09:35:47;;;;;;;7.53;5.90;;;2.60;99.90;;;;;;5076394;28;20425;-40
2023/11/29 09:38:13;;;;;;;7.27;6.57;;;2.40;99.90;;;;;;5095381;28;20430;-41
2023/11/29 09:40:39;;;;;;;7.30;6.33;;;2.30;47.30;;;;;;5095493;28;20541;-41
2023/11/29 09:43:07;;;;;;;8.40;6.90;;;2.20;95.50;;;;;;5060126;28;20238;-41
2023/11/29 09:45:33;;;;;;;6.53;5.80;;;2.20;1.00;;;;;;5078556;28;20437;-41
2023/11/29 09:47:59;;;;;;;6.83;6.23;;;2.10;1.00;;;;;;5094387;28;20462;-41
2023/11/29 09:50:26;;;;;;;6.90;6.20;;;1.90;1.00;;;;;;5094752;28;20836;-41
2023/11/29 09:52:54;;;;;;;6.10;5.30;;;1.70;99.90;;;;;;5095760;28;20526;-42
2023/11/29 09:55:20;;;;;;;7.70;6.07;;;1.50;1.00;;;;;;5096508;28;20467;-40
2023/11/29 09:57:45;;;;;;;6.90;6.20;;;1.50;1.00;;;;;;5076780;28;20489;-41
2023/11/29 10:00:14;;;;;;;8.33;6.73;;;1.40;1.00;;;;;;5059951;28;20546;-40
2023/11/29 10:02:40;;;;;;;6.30;5.70;;;1.50;99.90;;;;;;5076751;28;20177;-43
2023/11/29 10:05:06;;;;;;;6.97;6.27;;;1.40;99.90;;;;;;5060350;28;20430;-45
2023/11/29 10:07:32;;;;;;;7.80;6.43;;;1.50;43.30;;;;;;5094124;28;20465;-42
2023/11/29 10:10:02;;;;;;;7.90;6.43;;;1.50;1.00;;;;;;5059878;28;20426;-43
2023/11/29 10:12:27;;;;;;;6.80;6.03;;;1.60;99.90;;;;;;5076394;28;20175;-41
2023/11/29 10:14:56;;;;;;;7.00;6.13;;;1.80;91.60;;;;;;5075277;28;20442;-43
2023/11/29 10:17:22;;;;;;;7.23;5.73;;;1.80;1.00;;;;;;5094179;28;20286;-43
2023/11/29 10:19:47;;;;;;;7.40;6.20;;;1.80;32.20;;;;;;5075667;28;20501;-40
2023/11/29 10:22:16;;;;;;;6.50;5.70;;;1.90;1.00;;;;;;5093364;28;20457;-41
2023/11/29 10:24:43;;;;;;;5.90;5.13;;;1.70;99.90;;;;;;5093280;28;20169;-40
2023/11/29 10:27:10;;;;;;;6.47;5.30;;;1.60;1.00;;;;;;5094873;28;20547;-42
2023/11/29 10:29:36;;;;;;;7.30;5.47;;;1.60;1.00;;;;;;5075823;28;20462;-41
2023/11/29 10:32:05;;;;;;;6.17;4.53;;;1.60;11.20;;;;;;5094791;28;20512;-42
2023/11/29 10:34:33;;;;;;;6.57;5.27;;;1.50;99.90;;;;;;5095188;28;20209;-41
2023/11/29 10:37:00;;;;;;;4.97;4.47;;;1.60;99.90;;;;;;5094936;28;20442;-43
2023/11/29 10:39:30;;;;;;;6.10;5.50;;;1.80;1.00;;;;;;5094537;28;20468;-43
2023/11/29 10:41:58;;;;;;;6.10;5.40;;;1.90;99.90;;;;;;5095447;28;20532;-44
2023/11/29 10:44:30;;;;;;;7.50;5.80;;;1.90;65.40;;;;;;5096350;28;20507;-46
2023/11/29 10:47:03;;;;;;;5.40;4.90;;;1.90;99.90;;;;;;5095620;28;20863;-41
2023/11/29 10:49:42;;;;;;;5.80;5.20;;;2.00;99.90;;;;;;5095167;28;20417;-42
2023/11/29 10:52:08;;;;;;;7.30;5.30;;;2.00;99.90;;;;;;5078543;28;20413;-41
2023/11/29 10:54:34;;;;;;;6.20;5.60;;;2.10;1.00;;;;;;5079888;28;20862;-39
2023/11/29 10:57:01;;;;;;;6.77;6.07;;;2.20;13.50;;;;;;5080866;28;20291;-42
2023/11/29 10:59:30;;;;;;;5.93;5.33;;;2.20;99.90;;;;;;5097636;28;20759;-40
2023/11/29 11:01:56;;;;;;;5.73;5.23;;;2.20;99.90;;;;;;5062352;28;20449;-41
2023/11/29 11:04:27;;;;;;;6.33;5.60;;;2.10;1.00;;;;;;5095900;28;20415;-42
2023/11/29 11:06:55;;;;;;;6.40;5.70;;;2.20;28.10;;;;;;5078264;28;20469;-40
2023/11/29 11:09:40;;;;;;;6.47;5.80;;;2.10;99.90;;;;;;5098052;28;20797;-43
2023/11/29 11:12:06;;;;;;;6.60;5.30;;;2.10;1.00;;;;;;5079625;28;20495;-41
2023/11/29 11:14:36;;;;;;;6.37;5.63;;;2.20;1.00;;;;;;5096680;28;20534;-42
2023/11/29 11:17:06;;;;;;;5.73;5.13;;;2.00;1.00;;;;;;5095557;28;20430;-41
2023/11/29 11:19:42;;;;;;;6.47;5.17;;;2.10;17.70;;;;;;5096243;28;20410;-41
2023/11/29 11:22:10;;;;;;;5.20;4.63;;;2.50;99.90;;;;;;5094742;28;20410;-41
2023/11/29 11:25:16;;;;;;;5.77;5.17;;;3.00;99.90;;;;;;5095631;28;20426;-42
2023/11/29 11:27:48;;;;;;;7.07;6.00;;;3.50;99.90;;;;;;5093001;28;20482;-41
2023/11/29 11:30:14;;;;;;;6.10;5.37;;;4.10;1.00;;;;;;5094742;28;20485;-46
2023/11/29 11:32:40;;;;;;;5.70;5.20;;;4.80;99.90;;;;;;5077927;28;20441;-46
2023/11/29 11:37:45;;;;;;;5.27;4.77;;;5.40;65.90;;;;;;5094735;28;20812;-40
2023/11/29 11:40:14;;;;;;;9.20;6.10;;;5.60;99.90;;;;;;5076520;28;20495;-41
2023/11/29 11:42:40;;;;;;;5.77;5.00;;;6.20;1.00;;;;;;5094082;28;20422;-42
2023/11/29 11:45:10;;;;;;;5.00;4.33;;;6.50;99.90;;;;;;5077130;28;20793;-42
2023/11/29 11:47:36;;;;;;;6.37;4.83;;;8.10;1.00;;;;;;5095220;28;20579;-41
2023/11/29 11:50:02;;;;;;;6.23;4.70;;;8.60;1.00;;;;;;5095293;28;21016;-42
2023/11/29 11:52:28;;;;;;;4.93;4.47;;;8.50;1.00;;;;;;5093421;28;20419;-40
2023/11/29 11:54:54;;;;;;;4.83;4.33;;;8.40;1.00;;;;;;5093583;28;20461;-42
2023/11/29 11:57:19;;;;;;;5.30;4.70;;;8.10;1.00;;;;;;5076082;28;20180;-45
2023/11/29 11:59:45;;;;;;;6.30;4.57;;;7.80;1.00;;;;;;5058855;28;20188;-43
2023/11/29 12:02:11;;;;;;;4.93;4.50;;;7.30;1.00;;;;;;5094258;28;20197;-40
2023/11/29 12:04:36;;;;;;;4.30;3.90;;;7.30;1.00;;;;;;5074904;28;20188;-41
2023/11/29 12:07:06;;;;;;;4.60;4.20;;;7.20;1.00;;;;;;5074758;28;20709;-41
2023/11/29 12:09:33;;;;;;;4.83;4.40;;;6.70;1.00;;;;;;5094220;28;20255;-42
2023/11/29 12:12:09;;;;;;;4.80;4.30;;;6.30;1.00;;;;;;5092013;28;20430;-40
2023/11/29 12:14:35;;;;;;;5.40;4.83;;;6.20;1.00;;;;;;5093179;28;20488;-41
2023/11/29 12:17:00;;;;;;;4.97;4.47;;;5.80;1.00;;;;;;5091274;28;20426;-40
2023/11/29 12:19:26;;;;;;;4.83;3.90;;;5.60;1.00;;;;;;5093305;28;20271;-41
2023/11/29 12:21:51;;;;;;;6.13;4.43;;;5.60;18.10;;;;;;5076254;28;20237;-42
2023/11/29 12:24:17;;;;;;;5.20;4.43;;;5.80;18.50;;;;;;5090920;28;20480;-40
2023/11/29 12:26:46;;;;;;;4.30;3.90;;;5.80;1.00;;;;;;5090092;28;20172;-40
2023/11/29 12:29:13;;;;;;;4.67;4.27;;;6.10;1.00;;;;;;5091080;28;20219;-41
2023/11/29 12:31:39;;;;;;;4.67;4.27;;;6.10;1.00;;;;;;5092751;28;20493;-42
2023/11/29 12:34:04;;;;;;;7.97;7.10;;;6.00;1.00;;;;;;5089158;28;20425;-49
2023/11/29 12:36:31;;;;;;;5.13;4.63;;;6.00;1.00;;;;;;5089884;28;20956;-40
2023/11/29 12:39:04;;;;;;;4.73;4.30;;;5.90;1.00;;;;;;5090657;28;20252;-42
2023/11/29 12:41:30;;;;;;;5.03;4.53;;;5.60;1.00;;;;;;5074676;28;20407;-47
2023/11/29 12:43:57;;;;;;;4.50;4.10;;;5.60;1.00;;;;;;5092345;28;20441;-43
2023/11/29 12:46:22;;;;;;;4.40;4.00;;;5.60;1.00;;;;;;5092340;28;20180;-42